KOLV/OLV METAR and TAF weather

Enter ICAO airport designator
Station Type Date Time Source
KOLV METAR 2021/08/05 04:35 UTC NOAA

KOLV 050435Z AUTO 02003KT 10SM CLR 22/18 A3009 RMK A01


Station Type Date Time Source
KOLV Decoded METAR 2021/08/05 04:35 UTC NOAA

Olive Branch, Olive Branch Airport, MS, United States (KOLV) 34-58-44N 089-47-13W
Aug 05, 2021 - 12:35 AM EDT / 2021.08.05 0435 UTC
Wind: from the NNE (020 degrees) at 3 MPH (3 KT):0
Visibility: 10 mile(s):0
Sky conditions: clear
Temperature: 71 F (22 C)
Dew Point: 64 F (18 C)
Relative Humidity: 78%
Pressure (altimeter): 30.09 in. Hg (1018 hPa)
ob: KOLV 050435Z AUTO 02003KT 10SM CLR 22/18 A3009 RMK A01
cycle: 4

Station Type Date Time Source
KOLV TAF UTC NOAA

Error!

Example: see airport list